Погода Тимотеона неделю

Минас-Жерайс, Бразилия

21 - 27 июля
  • 21июля
    Сегодня
    +12°
    +27°
    Практически безоблачно
    ВремяПогодаТемператураВлажностьДавлениеВетер, м/сВероятность осадков
    00:00Ясно и безоблачно+13°C74 %730 мм1.2 м/с5 %
    03:00Ясно и безоблачно+12°C81 %730 мм1.3 м/с5 %
    06:00Ясно и безоблачно+12°C87 %731 мм1.2 м/с5 %
    09:00Ясно и безоблачно+19°C62 %732 мм0.5 м/с5 %
    12:00Ясно и безоблачно+25°C45 %732 мм1.7 м/с5 %
    15:00Практически безоблачно+26°C38 %730 мм2.8 м/с5 %
    18:00Практически безоблачно+19°C53 %729 мм0.9 м/с5 %
    21:00Ясно и безоблачно+15°C69 %730 мм1.3 м/с5 %
  • 22июля
    Понедельник
    +11°
    +27°
    Ясно и безоблачно
    ВремяПогодаТемператураВлажностьДавлениеВетер, м/сВероятность осадков
    00:00Ясно и безоблачно+13°C77 %731 мм1.0 м/с5 %
    03:00Практически безоблачно+14°C80 %730 мм1.1 м/с5 %
    06:00Облачно с прояснениями+15°C88 %731 мм0.7 м/с2 %
    09:00Небольшая облачность+20°C77 %733 мм2.0 м/с22 %
    12:00Практически безоблачно+25°C51 %732 мм1.3 м/с25 %
    15:00Ясно и безоблачно+27°C40 %730 мм1.5 м/с5 %
    18:00Ясно и безоблачно+20°C52 %730 мм1.3 м/с5 %
    21:00Ясно и безоблачно+17°C65 %730 мм1.1 м/с5 %
  • 23июля
    Вторник
    +13°
    +27°
    Ясно и безоблачно
    ВремяПогодаТемператураВлажностьДавлениеВетер, м/сВероятность осадков
    00:00Ясно и безоблачно+13°C72 %730 мм0.7 м/с5 %
    03:00Ясно и безоблачно+12°C84 %730 мм0.6 м/с5 %
    06:00Ясно и безоблачно+12°C86 %731 мм0.6 м/с5 %
    09:00Ясно и безоблачно+19°C65 %733 мм1.7 м/с5 %
    12:00Практически безоблачно+25°C45 %732 мм2.0 м/с5 %
    15:00Ясно и безоблачно+27°C39 %730 мм0.8 м/с5 %
    18:00Ясно и безоблачно+19°C55 %730 мм1.3 м/с5 %
    21:00Ясно и безоблачно+15°C66 %731 мм0.8 м/с5 %
  • 24июля
    Среда
    +12°
    +26°
    Практически безоблачно
    ВремяПогодаТемператураВлажностьДавлениеВетер, м/сВероятность осадков
    00:00Ясно и безоблачно+14°C70 %732 мм1.1 м/с5 %
    03:00Ясно и безоблачно+14°C80 %731 мм1.7 м/с5 %
    06:00Ясно и безоблачно+14°C86 %732 мм1.1 м/с5 %
    09:00Практически безоблачно+19°C65 %734 мм2.0 м/с5 %
    12:00Небольшая облачность+23°C50 %733 мм2.2 м/с5 %
    15:00Практически безоблачно+26°C38 %731 мм1.4 м/с5 %
    18:00Практически безоблачно+18°C56 %731 мм0.5 м/с5 %
    21:00Ясно и безоблачно+15°C66 %731 мм1.1 м/с5 %
  • 25июля
    Четверг
    +11°
    +27°
    Ясно и безоблачно
    ВремяПогодаТемператураВлажностьДавлениеВетер, м/сВероятность осадков
    00:00Небольшая облачность+13°C72 %731 мм0.7 м/с5 %
    03:00Небольшая облачность+14°C74 %731 мм1.1 м/с5 %
    06:00Практически безоблачно+14°C82 %731 мм1.1 м/с5 %
    09:00Ясно и безоблачно+19°C67 %733 мм1.4 м/с5 %
    12:00Ясно и безоблачно+24°C43 %731 мм1.8 м/с5 %
    15:00Ясно и безоблачно+26°C33 %729 мм1.8 м/с5 %
    18:00Ясно и безоблачно+18°C48 %729 мм1.7 м/с5 %
    21:00Ясно и безоблачно+15°C58 %729 мм1.1 м/с5 %
Мы используем cookies
Соглашаюсь